Columbia — WDD6400 — position and weather

sailwx.info

Track history (hours):
 
Tides and Currents Weather Stations Pressure Air Temp Water Temp Dewpoint Dewpoint Depression Visibility Wind Speed Wind Dir Waves Ship Positions

Columbia

Owner: OSG Ship Management Inc., Tampa, FL. More information available from US FCC via Universal Licensing System and Coast Guard Vessel Documentation Center.

Last reported at 2015-Jul-29 18:33 UTC. Time now 2015-Jul-30 18:16 UTC.
Position N 27°56' W 082°27'.

Length 194 m; draft 9.4 m.

Type: Towing. MMSI: 367172440.

Date/timePositionNaut miles runAvg speedWind from/ knotsBaromVisibWave heightAir tempDewpointWater temp
2015-Jul-29 18:33N 27°56' W 082°27'1 1.2
2015-Jul-29 17:33N 27°55' W 082°26'0 0.1
2015-Jul-29 16:34N 27°55' W 082°26'0 0.0
2015-Jul-29 15:33N 27°55' W 082°26'0 0.0
2015-Jul-29 14:33N 27°55' W 082°26'0 0.0
2015-Jul-29 13:33N 27°55' W 082°26'0 0.0
2015-Jul-29 12:33N 27°55' W 082°26'0 0.0
2015-Jul-29 11:33N 27°55' W 082°26'0 0.0
2015-Jul-29 10:33N 27°55' W 082°26'0 0.0
2015-Jul-29 09:33N 27°55' W 082°26'0 0.0
2015-Jul-29 08:33N 27°55' W 082°26'0 0.0
2015-Jul-29 07:33N 27°55' W 082°26'0 0.0
2015-Jul-29 06:33N 27°55' W 082°26'0 0.0
2015-Jul-29 05:33N 27°55' W 082°26'0 0.0
2015-Jul-29 04:33N 27°55' W 082°26'0 0.0
2015-Jul-29 03:33N 27°55' W 082°26'0 0.0
2015-Jul-29 02:33N 27°55' W 082°26'0 0.0
2015-Jul-29 01:33N 27°55' W 082°26'0 0.0
2015-Jul-29 00:33N 27°55' W 082°26'0 0.0
2015-Jul-28 23:33N 27°55' W 082°26'0 0.0
2015-Jul-28 22:33N 27°55' W 082°26'0 0.0
2015-Jul-28 21:33N 27°55' W 082°26'0 0.0
2015-Jul-28 20:33N 27°55' W 082°26'0 0.0
2015-Jul-28 19:33N 27°55' W 082°26'0 0.0
2015-Jul-28 18:33N 27°55' W 082°26'0 0.0
2015-Jul-28 17:33N 27°55' W 082°26'1 1.2
2015-Jul-28 16:33N 27°56' W 082°27'0 0.0
2015-Jul-28 15:33N 27°56' W 082°27'5 4.9
2015-Jul-28 14:33N 27°51' W 082°27'9 8.5
2015-Jul-28 13:33N 27°44' W 082°32'  
Track history (hours):
 
Tides and Currents Weather Stations Pressure Air Temp Water Temp Dewpoint Dewpoint Depression Visibility Wind Speed Wind Dir Waves Ship Positions

Columbia

Owner: OSG Ship Management Inc., Tampa, FL. More information available from US FCC via Universal Licensing System and Coast Guard Vessel Documentation Center.

Last reported at 2015-Jul-29 18:33 UTC. Time now 2015-Jul-30 18:16 UTC.
Position N 27°56' W 082°27'.

Length 194 m; draft 9.4 m.

Type: Towing. MMSI: 367172440.

Date/timePositionNaut miles runAvg speedWind from/ knotsBaromVisibWave heightAir tempDewpointWater temp
2015-Jul-29 18:33N 27°56' W 082°27'1 1.2
2015-Jul-29 17:33N 27°55' W 082°26'0 0.1
2015-Jul-29 16:34N 27°55' W 082°26'0 0.0
2015-Jul-29 15:33N 27°55' W 082°26'0 0.0
2015-Jul-29 14:33N 27°55' W 082°26'0 0.0
2015-Jul-29 13:33N 27°55' W 082°26'0 0.0
2015-Jul-29 12:33N 27°55' W 082°26'0 0.0
2015-Jul-29 11:33N 27°55' W 082°26'0 0.0
2015-Jul-29 10:33N 27°55' W 082°26'0 0.0
2015-Jul-29 09:33N 27°55' W 082°26'0 0.0
2015-Jul-29 08:33N 27°55' W 082°26'0 0.0
2015-Jul-29 07:33N 27°55' W 082°26'0 0.0
2015-Jul-29 06:33N 27°55' W 082°26'0 0.0
2015-Jul-29 05:33N 27°55' W 082°26'0 0.0
2015-Jul-29 04:33N 27°55' W 082°26'0 0.0
2015-Jul-29 03:33N 27°55' W 082°26'0 0.0
2015-Jul-29 02:33N 27°55' W 082°26'0 0.0
2015-Jul-29 01:33N 27°55' W 082°26'0 0.0
2015-Jul-29 00:33N 27°55' W 082°26'0 0.0
2015-Jul-28 23:33N 27°55' W 082°26'0 0.0
2015-Jul-28 22:33N 27°55' W 082°26'0 0.0
2015-Jul-28 21:33N 27°55' W 082°26'0 0.0
2015-Jul-28 20:33N 27°55' W 082°26'0 0.0
2015-Jul-28 19:33N 27°55' W 082°26'0 0.0
2015-Jul-28 18:33N 27°55' W 082°26'0 0.0
2015-Jul-28 17:33N 27°55' W 082°26'1 1.2
2015-Jul-28 16:33N 27°56' W 082°27'0 0.0
2015-Jul-28 15:33N 27°56' W 082°27'5 4.9
2015-Jul-28 14:33N 27°51' W 082°27'9 8.5
2015-Jul-28 13:33N 27°44' W 082°32'  

Dump ship's entire track history